KMCE/MCE METAR and TAF weather

Enter ICAO airport designator
Station Type Date Time Source
KMCE METAR 2019/12/08 03:53 UTC NOAA

KMCE 080353Z AUTO 13008KT 10SM BKN070 BKN080 OVC090 14/12 A2997 RMK AO2 SLP148 T01390117


Station Type Date Time Source
KMCE Decoded METAR 2019/12/08 03:53 UTC NOAA

MERCED MUNICIPAL AIRPORT, CA, United States (KMCE) 37-17N 120-30W 47M
Dec 07, 2019 - 10:53 PM EST / 2019.12.08 0353 UTC
Wind: from the SE (130 degrees) at 9 MPH (8 KT):0
Visibility: 10 mile(s):0
Sky conditions: overcast
Temperature: 57.0 F (13.9 C)
Dew Point: 53.1 F (11.7 C)
Relative Humidity: 86%
Pressure (altimeter): 29.97 in. Hg (1014 hPa)
ob: KMCE 080353Z AUTO 13008KT 10SM BKN070 BKN080 OVC090 14/12 A2997 RMK AO2 SLP148 T01390117
cycle: 4

Station Type Date Time Source
KMCE TAF 2019/12/07 18:22 UTC NOAA

TAF KMCE 071720Z 0718/0818 14015G20KT 5SM -SHRA BKN030 OVC050
FM071900 14015G20KT 3SM -TSRA BKN030CB OVC050
FM080200 14014KT 6SM -SHRA BKN030 OVC050
FM081100 12006KT 2SM -SHRA OVC015

Example: see airport list